Time;durP1;ratioP1;P1;durP2;ratioP2;P2;SDS_P1;SDS_P2;PMS_P1;PMS_P2;Temp;Humidity;BMP_temperature;BMP_pressure;BME280_temperature;BME280_humidity;BME280_pressure;Samples;Min_cycle;Max_cycle;Signal;HPM_P1;HPM_P2
2021/08/16 00:01:47;;;;;;;23.92;12.70;;;;;;;23.36;55.03;99624.81;1667895;84;21054;-74
2021/08/16 00:04:14;;;;;;;27.02;13.25;;;;;;;23.40;55.03;99627.15;1672476;84;21173;-75
2021/08/16 00:06:40;;;;;;;32.98;14.13;;;;;;;23.44;54.93;99623.42;1691394;83;20987;-74
2021/08/16 00:09:09;;;;;;;21.50;12.85;;;;;;;23.46;54.86;99621.13;1691247;84;21568;-74
2021/08/16 00:11:39;;;;;;;18.85;12.55;;;;;;;23.52;54.88;99627.78;1676140;84;21116;-83
2021/08/16 00:14:06;;;;;;;29.05;13.85;;;;;;;23.56;54.92;99620.47;1671424;84;21062;-79
2021/08/16 00:16:33;;;;;;;40.30;15.25;;;;;;;23.55;55.14;99623.78;1645516;86;21417;-73
2021/08/16 00:19:00;;;;;;;32.10;16.15;;;;;;;23.42;55.60;99623.48;1656967;84;21070;-70
2021/08/16 00:21:28;;;;;;;27.93;14.70;;;;;;;23.30;56.13;99613.83;1677272;84;20975;-72
2021/08/16 00:23:56;;;;;;;25.57;14.13;;;;;;;23.08;56.86;99614.16;1665203;84;20986;-70
2021/08/16 00:26:24;;;;;;;24.12;14.55;;;;;;;22.98;57.34;99612.05;1691077;84;21437;-73
2021/08/16 00:28:51;;;;;;;30.25;15.15;;;;;;;22.84;57.89;99611.50;1717798;83;21848;-70
2021/08/16 00:31:19;;;;;;;42.88;15.40;;;;;;;22.68;58.40;99610.47;1667101;84;20947;-70
2021/08/16 00:33:46;;;;;;;26.75;14.00;;;;;;;22.70;58.15;99615.59;1667684;84;20999;-71
2021/08/16 00:36:13;;;;;;;24.65;13.30;;;;;;;22.72;58.13;99616.11;1692141;83;21527;-73
2021/08/16 00:38:40;;;;;;;26.15;13.20;;;;;;;22.70;58.23;99616.44;1646755;86;21496;-74
2021/08/16 00:41:06;;;;;;;35.50;16.50;;;;;;;22.72;58.35;99616.11;1609307;89;21080;-77
2021/08/16 00:43:34;;;;;;;28.38;15.68;;;;;;;22.74;58.31;99616.00;1607010;88;20976;-74
2021/08/16 00:46:01;;;;;;;37.08;17.62;;;;;;;22.78;58.28;99612.83;1584792;88;21020;-78
2021/08/16 00:48:29;;;;;;;29.07;15.70;;;;;;;22.80;58.51;99615.24;1621549;88;21002;-74
2021/08/16 00:50:56;;;;;;;26.60;15.75;;;;;;;22.81;58.51;99612.74;1616320;87;20976;-74
2021/08/16 00:53:23;;;;;;;25.08;14.75;;;;;;;22.76;59.04;99616.48;1569738;89;21106;-75
2021/08/16 00:55:51;;;;;;;35.98;16.82;;;;;;;22.68;59.32;99613.77;1578028;90;21478;-73
2021/08/16 00:58:20;;;;;;;27.77;16.95;;;;;;;22.54;59.65;99614.80;1594421;90;21554;-79
2021/08/16 01:00:51;;;;;;;25.05;13.93;;;;;;;22.48;59.27;99616.13;1614999;88;21014;-78
2021/08/16 01:03:17;;;;;;;25.35;15.00;;;;;;;22.45;59.61;99610.48;1600244;87;21055;-78
2021/08/16 01:05:44;;;;;;;24.45;13.18;;;;;;;22.44;59.68;99606.16;1614307;87;21397;-78
2021/08/16 01:08:12;;;;;;;22.13;12.55;;;;;;;22.45;59.76;99608.55;1613573;88;20999;-78
2021/08/16 01:10:39;;;;;;;21.82;14.05;;;;;;;22.49;59.71;99612.83;1599045;88;20983;-79
2021/08/16 01:13:07;;;;;;;24.82;16.20;;;;;;;22.51;59.80;99612.72;1613779;88;21631;-79
2021/08/16 01:15:34;;;;;;;21.37;15.93;;;;;;;22.51;59.95;99611.91;1611737;87;21070;-76
2021/08/16 01:18:02;;;;;;;20.20;15.28;;;;;;;22.50;60.02;99613.05;1638637;86;21523;-76
2021/08/16 01:20:30;;;;;;;24.72;12.68;;;;;;;22.40;60.56;99608.73;1615520;86;20959;-77
2021/08/16 01:22:59;;;;;;;27.90;14.98;;;;;;;22.32;60.71;99606.05;1615480;86;21031;-77
2021/08/16 01:25:26;;;;;;;19.77;13.45;;;;;;;22.39;60.63;99607.72;1615216;86;21054;-75
2021/08/16 01:27:55;;;;;;;22.75;13.83;;;;;;;22.27;61.28;99611.14;1646875;86;21606;-75
2021/08/16 01:30:23;;;;;;;18.55;12.93;;;;;;;22.28;61.29;99609.21;1650829;86;21622;-76
2021/08/16 01:32:50;;;;;;;19.00;13.08;;;;;;;22.53;60.34;99609.09;1664640;85;20998;-76
2021/08/16 01:35:16;;;;;;;18.37;13.20;;;;;;;22.59;60.03;99604.20;1664840;84;20951;-75
2021/08/16 01:37:42;;;;;;;16.40;12.05;;;;;;;22.51;60.37;99608.61;1663394;86;21658;-76
2021/08/16 01:40:13;;;;;;;17.55;13.30;;;;;;;22.63;59.93;99609.28;1663331;85;20978;-75
2021/08/16 01:42:41;;;;;;;28.27;13.48;;;;;;;22.80;59.35;99607.82;1641561;86;22226;-75
2021/08/16 01:45:09;;;;;;;22.62;13.05;;;;;;;22.93;58.76;99602.64;1675358;84;20975;-77
2021/08/16 01:47:35;;;;;;;23.85;12.30;;;;;;;22.99;58.62;99597.20;1693604;84;20974;-76
2021/08/16 01:50:04;;;;;;;20.05;11.83;;;;;;;22.99;58.60;99601.88;1669650;84;21026;-77
2021/08/16 01:52:30;;;;;;;23.52;14.23;;;;;;;23.02;58.66;99605.34;1693591;84;20900;-77
2021/08/16 01:54:57;;;;;;;20.82;13.83;;;;;;;22.99;58.92;99599.14;1661717;84;21764;-76
2021/08/16 01:57:23;;;;;;;22.60;13.88;;;;;;;22.94;59.04;99605.63;1661454;86;20994;-75
2021/08/16 01:59:50;;;;;;;22.80;13.03;;;;;;;22.98;58.89;99604.38;1636500;86;20983;-75
2021/08/16 02:02:16;;;;;;;24.40;13.32;;;;;;;22.95;59.10;99601.75;1637404;87;21055;-77
2021/08/16 02:04:42;;;;;;;16.07;12.88;;;;;;;22.96;59.05;99606.67;1639034;85;21023;-77
2021/08/16 02:07:09;;;;;;;23.05;13.15;;;;;;;22.90;59.09;99600.58;1615586;87;21929;-77
2021/08/16 02:09:35;;;;;;;23.32;14.68;;;;;;;22.82;59.40;99603.39;1640137;87;20997;-75
2021/08/16 02:12:04;;;;;;;15.80;12.15;;;;;;;22.69;60.15;99605.76;1640172;87;21567;-76
2021/08/16 02:14:31;;;;;;;23.25;14.23;;;;;;;22.47;61.21;99598.64;1640154;87;21068;-75
2021/08/16 02:16:57;;;;;;;23.80;14.10;;;;;;;22.30;61.86;99605.59;1646457;85;21039;-76
2021/08/16 02:19:24;;;;;;;20.82;15.25;;;;;;;22.18;62.13;99607.08;1671466;84;21085;-74
2021/08/16 02:21:50;;;;;;;22.15;14.78;;;;;;;22.09;62.56;99608.25;1658313;85;21117;-75
2021/08/16 02:24:16;;;;;;;19.57;13.48;;;;;;;22.03;62.36;99610.35;1615296;87;21512;-74
2021/08/16 02:26:43;;;;;;;18.57;13.28;;;;;;;22.04;62.17;99611.16;1641977;85;21300;-75
2021/08/16 02:29:12;;;;;;;22.00;15.10;;;;;;;22.01;62.44;99612.63;1661345;86;21508;-76
2021/08/16 02:31:38;;;;;;;20.40;14.95;;;;;;;21.98;62.77;99620.11;1615396;87;21512;-76
2021/08/16 02:34:04;;;;;;;20.32;14.38;;;;;;;21.74;64.13;99616.52;1661356;86;20955;-76
2021/08/16 02:36:31;;;;;;;19.35;14.38;;;;;;;21.67;64.55;99621.70;1639844;87;21015;-76
2021/08/16 02:38:57;;;;;;;24.67;15.32;;;;;;;21.92;63.91;99618.64;1665853;84;21008;-76
2021/08/16 02:41:25;;;;;;;19.73;15.72;;;;;;;21.84;64.11;99622.78;1677497;84;21563;-75
2021/08/16 02:43:52;;;;;;;20.88;14.30;;;;;;;21.82;63.91;99631.91;1640098;87;21548;-76
2021/08/16 02:46:19;;;;;;;22.05;15.70;;;;;;;21.77;63.92;99640.28;1678446;84;20968;-76
2021/08/16 02:48:46;;;;;;;22.87;13.55;;;;;;;21.80;64.06;99636.33;1669393;84;21520;-77
2021/08/16 02:51:13;;;;;;;18.07;13.95;;;;;;;21.88;63.95;99628.65;1635040;86;21012;-76
2021/08/16 02:53:40;;;;;;;17.10;12.45;;;;;;;21.98;63.70;99631.07;1657291;86;20976;-77
2021/08/16 02:56:06;;;;;;;19.40;13.90;;;;;;;22.08;63.38;99636.20;1657508;86;21040;-76
2021/08/16 02:58:33;;;;;;;21.87;13.83;;;;;;;22.11;63.34;99633.36;1703377;83;21571;-76
2021/08/16 03:00:59;;;;;;;13.72;12.15;;;;;;;22.09;63.33;99637.00;1639036;86;21350;-74
2021/08/16 03:03:26;;;;;;;19.67;14.73;;;;;;;22.04;63.50;99634.44;1656832;86;21087;-75
2021/08/16 03:05:52;;;;;;;24.90;14.98;;;;;;;21.96;63.69;99631.17;1661618;84;21544;-75
2021/08/16 03:08:19;;;;;;;28.15;15.88;;;;;;;21.86;64.03;99635.59;1615289;87;21089;-76
2021/08/16 03:10:47;;;;;;;29.85;16.45;;;;;;;21.78;64.33;99634.47;1660865;84;21058;-76
2021/08/16 03:13:16;;;;;;;26.30;14.47;;;;;;;21.72;64.70;99633.86;1631198;86;21043;-76
2021/08/16 03:15:42;;;;;;;24.92;15.65;;;;;;;21.63;65.10;99639.11;1617996;87;21019;-75
2021/08/16 03:18:10;;;;;;;20.62;12.88;;;;;;;21.56;65.51;99631.94;1661826;86;20924;-76
2021/08/16 03:20:37;;;;;;;23.02;15.25;;;;;;;21.63;65.54;99641.25;1640816;86;21098;-76
2021/08/16 03:23:05;;;;;;;26.90;15.72;;;;;;;21.73;65.27;99641.48;1634541;86;20967;-76
2021/08/16 03:25:31;;;;;;;26.05;14.65;;;;;;;21.81;64.99;99637.94;1640258;86;20912;-77
2021/08/16 03:27:57;;;;;;;22.02;15.95;;;;;;;21.89;64.79;99635.73;1641010;84;20904;-80
2021/08/16 03:30:24;;;;;;;21.60;14.85;;;;;;;21.94;64.48;99631.48;1645181;84;21237;-76
2021/08/16 03:32:50;;;;;;;23.15;16.45;;;;;;;21.97;64.37;99633.56;1617236;87;21053;-76
2021/08/16 03:35:17;;;;;;;24.10;17.75;;;;;;;22.01;64.22;99633.17;1663329;85;21593;-76
2021/08/16 03:37:45;;;;;;;18.85;14.53;;;;;;;22.03;64.11;99625.42;1641821;85;21039;-75
2021/08/16 03:40:13;;;;;;;20.92;14.83;;;;;;;22.04;64.07;99628.96;1639887;87;21123;-75
2021/08/16 03:42:39;;;;;;;24.20;15.85;;;;;;;22.00;64.32;99624.71;1643801;86;20999;-75
2021/08/16 03:45:13;;;;;;;26.60;17.52;;;;;;;22.01;64.36;99625.52;1614315;87;21183;-74
2021/08/16 03:47:39;;;;;;;34.27;17.20;;;;;;;22.06;64.21;99628.86;1612857;87;21500;-76
2021/08/16 03:50:12;;;;;;;23.25;15.95;;;;;;;22.10;64.06;99622.99;1638056;87;21517;-76
2021/08/16 03:52:39;;;;;;;19.37;14.25;;;;;;;22.11;63.99;99625.95;1640234;87;21128;-76
2021/08/16 03:55:06;;;;;;;18.92;14.40;;;;;;;22.15;63.97;99626.92;1602130;87;21070;-76
2021/08/16 03:57:34;;;;;;;21.40;16.80;;;;;;;22.16;63.93;99629.07;1615149;87;20992;-75
2021/08/16 04:00:02;;;;;;;20.40;16.12;;;;;;;22.20;63.86;99628.67;1614799;87;21008;-75
2021/08/16 04:02:31;;;;;;;19.85;14.63;;;;;;;22.26;63.76;99632.02;1615136;86;21650;-76
2021/08/16 04:04:58;;;;;;;21.50;14.58;;;;;;;22.28;63.66;99627.83;1613607;87;20927;-75
2021/08/16 04:07:26;;;;;;;25.55;15.90;;;;;;;22.28;63.73;99628.39;1613681;89;20959;-74
2021/08/16 04:09:53;;;;;;;24.80;15.88;;;;;;;22.18;64.11;99626.81;1623665;87;21393;-75
2021/08/16 04:12:21;;;;;;;21.60;15.60;;;;;;;22.15;64.50;99632.41;1618058;86;21059;-74
2021/08/16 04:14:49;;;;;;;21.73;15.43;;;;;;;22.18;64.55;99630.36;1615040;87;20968;-76
2021/08/16 04:17:15;;;;;;;26.95;17.57;;;;;;;22.18;64.72;99635.04;1614705;88;21024;-76
2021/08/16 04:19:42;;;;;;;26.90;16.82;;;;;;;22.13;64.88;99637.39;1645753;86;21555;-75
2021/08/16 04:22:08;;;;;;;27.25;16.95;;;;;;;22.09;65.02;99635.64;1615112;87;22008;-74
2021/08/16 04:24:35;;;;;;;24.02;16.50;;;;;;;22.07;65.18;99633.78;1615077;88;21034;-74
2021/08/16 04:27:02;;;;;;;23.12;17.32;;;;;;;22.05;65.28;99636.86;1614908;88;21060;-73
2021/08/16 04:29:29;;;;;;;27.80;20.75;;;;;;;22.05;65.44;99640.16;1597350;88;21042;-75
2021/08/16 04:31:56;;;;;;;25.60;17.12;;;;;;;22.07;65.35;99638.70;1615326;88;21015;-73
2021/08/16 04:34:24;;;;;;;24.35;18.30;;;;;;;22.11;65.28;99638.84;1593855;88;21098;-74
2021/08/16 04:36:50;;;;;;;32.73;18.42;;;;;;;22.14;65.21;99638.20;1613132;88;21015;-77
2021/08/16 04:39:16;;;;;;;24.67;17.42;;;;;;;22.16;65.09;99639.47;1612627;88;21119;-75
2021/08/16 04:41:42;;;;;;;27.82;18.85;;;;;;;22.12;65.17;99635.78;1643545;86;21019;-76
2021/08/16 04:44:09;;;;;;;28.60;17.92;;;;;;;22.11;65.24;99631.98;1614027;88;21098;-75
2021/08/16 04:46:35;;;;;;;29.55;18.23;;;;;;;22.10;65.37;99625.73;1613920;88;21771;-76
2021/08/16 04:49:02;;;;;;;23.90;15.70;;;;;;;22.10;65.50;99629.84;1613805;88;20968;-76
2021/08/16 04:51:29;;;;;;;28.65;17.75;;;;;;;22.14;65.58;99632.72;1615374;88;22131;-76
2021/08/16 04:53:55;;;;;;;30.43;18.35;;;;;;;22.17;65.51;99628.75;1620153;87;21104;-77
2021/08/16 04:56:21;;;;;;;25.50;16.25;;;;;;;22.22;65.45;99633.81;1640666;87;21592;-77
2021/08/16 04:58:49;;;;;;;23.45;16.02;;;;;;;22.26;65.38;99634.19;1614243;87;21077;-77
2021/08/16 05:01:15;;;;;;;30.15;17.20;;;;;;;22.32;65.20;99632.08;1638558;86;21519;-78
2021/08/16 05:03:42;;;;;;;31.57;18.60;;;;;;;22.35;65.14;99641.80;1656818;85;21115;-77
2021/08/16 05:06:09;;;;;;;23.92;15.18;;;;;;;22.40;65.01;99641.63;1638583;87;21537;-76
2021/08/16 05:08:36;;;;;;;23.32;15.43;;;;;;;22.47;64.80;99640.56;1656988;85;21047;-76
2021/08/16 05:11:04;;;;;;;23.20;16.17;;;;;;;22.58;64.45;99641.80;1661667;86;20908;-77
2021/08/16 05:13:32;;;;;;;23.77;14.00;;;;;;;22.62;64.34;99637.83;1639693;87;20979;-76
2021/08/16 05:15:58;;;;;;;23.05;14.65;;;;;;;22.68;64.15;99642.00;1661683;86;20987;-77
2021/08/16 05:18:26;;;;;;;23.10;14.98;;;;;;;22.73;64.04;99640.47;1639414;87;21016;-78
2021/08/16 05:20:55;;;;;;;23.40;14.60;;;;;;;22.81;63.99;99648.39;1604880;86;20943;-78
2021/08/16 05:23:23;;;;;;;22.87;14.13;;;;;;;22.83;64.04;99641.42;1634146;87;21011;-77
2021/08/16 05:25:51;;;;;;;21.42;15.60;;;;;;;22.89;64.00;99637.93;1637622;87;21140;-77
2021/08/16 05:28:17;;;;;;;18.70;12.98;;;;;;;22.95;63.99;99628.37;1637591;87;21058;-78
2021/08/16 05:30:44;;;;;;;32.25;14.50;;;;;;;23.02;63.72;99625.33;1643108;87;21764;-77
2021/08/16 05:33:11;;;;;;;41.18;17.17;;;;;;;23.11;63.51;99623.11;1656504;85;21095;-77
2021/08/16 05:35:38;;;;;;;34.43;17.15;;;;;;;23.15;63.41;99623.48;1638766;87;21305;-77
2021/08/16 05:38:04;;;;;;;38.75;16.40;;;;;;;23.21;63.32;99631.75;1638411;85;21084;-77
2021/08/16 05:40:31;;;;;;;28.57;15.23;;;;;;;23.29;63.29;99626.75;1675110;85;20970;-78
2021/08/16 05:42:57;;;;;;;33.63;15.40;;;;;;;23.38;63.07;99629.41;1637663;87;21028;-79
2021/08/16 05:45:23;;;;;;;22.30;14.95;;;;;;;23.46;62.91;99626.62;1637846;87;21632;-77
2021/08/16 05:47:50;;;;;;;24.12;15.48;;;;;;;23.56;62.72;99630.08;1637785;87;22002;-77
2021/08/16 05:50:17;;;;;;;24.65;14.90;;;;;;;23.64;62.58;99641.58;1639333;87;20956;-79
2021/08/16 05:52:43;;;;;;;22.93;13.95;;;;;;;23.70;62.51;99642.38;1640237;87;21565;-76
2021/08/16 05:55:10;;;;;;;28.75;14.03;;;;;;;23.79;62.34;99645.03;1625040;87;21012;-77
2021/08/16 05:57:37;;;;;;;23.95;13.13;;;;;;;23.88;61.93;99659.52;1614936;88;21091;-77
2021/08/16 06:00:05;;;;;;;20.02;12.78;;;;;;;23.96;61.37;99666.05;1613894;88;21519;-75
2021/08/16 06:02:33;;;;;;;35.70;14.05;;;;;;;24.04;61.57;99665.14;1612258;89;21031;-76
2021/08/16 06:05:01;;;;;;;21.15;12.82;;;;;;;24.12;61.54;99658.77;1612251;87;21555;-76
2021/08/16 06:07:28;;;;;;;32.80;15.03;;;;;;;24.20;60.95;99663.39;1612498;88;20978;-77
2021/08/16 06:09:56;;;;;;;26.23;15.23;;;;;;;24.28;60.65;99655.04;1612588;88;21247;-76
2021/08/16 06:12:22;;;;;;;34.43;15.08;;;;;;;24.36;60.30;99641.55;1612321;88;21770;-75
2021/08/16 06:14:50;;;;;;;31.62;16.50;;;;;;;24.42;60.03;99642.90;1612560;88;21495;-76
2021/08/16 06:17:17;;;;;;;25.68;13.88;;;;;;;24.49;59.99;99641.20;1609727;88;21074;-76
2021/08/16 06:19:45;;;;;;;23.18;14.00;;;;;;;24.56;60.18;99642.80;1609098;88;21040;-76
2021/08/16 06:22:11;;;;;;;21.97;13.48;;;;;;;24.62;60.12;99638.67;1607429;88;21100;-75
2021/08/16 06:24:39;;;;;;;25.17;12.55;;;;;;;24.69;59.69;99642.23;1585140;89;21650;-78
2021/08/16 06:27:11;;;;;;;18.95;12.37;;;;;;;24.77;59.25;99634.42;1607149;89;21615;-75
2021/08/16 06:29:38;;;;;;;21.77;13.30;;;;;;;24.86;59.15;99633.72;1612995;88;21050;-78
2021/08/16 06:32:07;;;;;;;18.73;13.08;;;;;;;24.95;59.11;99630.87;1614610;88;21055;-74
2021/08/16 06:34:39;;;;;;;20.27;12.80;;;;;;;25.03;59.02;99632.70;1614040;88;21536;-77
2021/08/16 06:37:03;;;;;;;23.05;13.68;;;;;;;25.11;59.09;99639.45;1613255;88;21325;-76
2021/08/16 06:39:29;;;;;;;17.75;12.95;;;;;;;25.22;59.09;99644.48;1613596;89;21059;-76
2021/08/16 06:41:56;;;;;;;21.57;11.80;;;;;;;25.32;58.92;99648.92;1613457;88;21020;-76
2021/08/16 06:44:25;;;;;;;20.45;12.88;;;;;;;25.41;58.86;99644.07;1613489;88;21091;-77
2021/08/16 06:46:52;;;;;;;22.73;11.65;;;;;;;25.52;58.72;99652.62;1598816;89;21035;-77
2021/08/16 06:49:20;;;;;;;16.55;10.58;;;;;;;25.59;58.21;99658.37;1611480;88;21174;-76
2021/08/16 06:51:46;;;;;;;11.70;10.35;;;;;;;25.66;58.14;99659.94;1643883;87;21084;-76
2021/08/16 06:54:13;;;;;;;17.55;10.32;;;;;;;25.74;58.22;99658.20;1614943;87;21528;-77
2021/08/16 06:56:40;;;;;;;16.90;10.60;;;;;;;25.81;58.15;99656.43;1615052;88;21071;-76
2021/08/16 06:59:06;;;;;;;13.72;9.78;;;;;;;25.90;57.62;99653.54;1613887;88;21536;-76
2021/08/16 07:01:38;;;;;;;10.53;8.48;;;;;;;25.98;57.09;99649.81;1613598;89;21162;-78
2021/08/16 07:04:08;;;;;;;21.15;11.88;;;;;;;26.09;56.62;99655.00;1589781;89;21082;-75
2021/08/16 07:06:38;;;;;;;14.78;10.60;;;;;;;26.20;56.73;99652.53;1617790;88;21078;-75
2021/08/16 07:09:05;;;;;;;15.35;10.18;;;;;;;26.30;56.40;99648.70;1610680;88;21563;-76
2021/08/16 07:11:34;;;;;;;16.93;10.98;;;;;;;26.39;56.26;99651.28;1615036;87;21031;-76
2021/08/16 07:14:00;;;;;;;12.93;9.35;;;;;;;26.47;56.13;99653.08;1613576;87;21029;-76
2021/08/16 07:16:27;;;;;;;11.35;10.03;;;;;;;26.55;55.88;99649.91;1588397;89;21066;-75
2021/08/16 07:18:55;;;;;;;16.73;10.63;;;;;;;26.62;55.82;99648.09;1589007;89;20943;-77
2021/08/16 07:21:21;;;;;;;15.65;10.60;;;;;;;26.69;55.80;99651.62;1612279;88;21031;-74
2021/08/16 07:23:49;;;;;;;15.83;10.63;;;;;;;26.76;55.20;99654.56;1613496;88;21016;-76
2021/08/16 07:26:16;;;;;;;13.45;11.03;;;;;;;26.83;54.97;99647.81;1614052;88;21201;-76
2021/08/16 07:28:46;;;;;;;12.25;9.70;;;;;;;26.89;54.82;99649.98;1615513;88;21010;-77
2021/08/16 07:31:12;;;;;;;16.65;10.32;;;;;;;26.97;54.58;99655.64;1580285;88;21132;-77
2021/08/16 07:33:39;;;;;;;14.50;9.08;;;;;;;27.02;54.02;99653.98;1613681;88;21071;-77
2021/08/16 07:36:06;;;;;;;18.48;9.38;;;;;;;27.08;53.47;99653.36;1613659;88;21083;-77
2021/08/16 07:38:34;;;;;;;13.55;10.20;;;;;;;27.18;53.04;99660.27;1613558;88;22146;-76
2021/08/16 07:41:00;;;;;;;14.35;8.35;;;;;;;27.23;52.77;99658.03;1613519;88;21513;-78
2021/08/16 07:43:27;;;;;;;11.35;9.25;;;;;;;27.31;51.60;99661.16;1594382;88;21122;-77
2021/08/16 07:45:54;;;;;;;10.23;7.72;;;;;;;27.38;51.42;99655.58;1613967;89;20990;-76
2021/08/16 07:48:21;;;;;;;12.63;8.88;;;;;;;27.46;50.53;99651.20;1587536;89;21087;-76
2021/08/16 07:50:49;;;;;;;11.03;9.15;;;;;;;27.55;51.05;99645.48;1606817;88;20980;-76
2021/08/16 07:53:16;;;;;;;16.48;9.03;;;;;;;27.65;50.83;99647.09;1611150;89;20972;-76
2021/08/16 07:55:43;;;;;;;14.30;9.68;;;;;;;27.80;50.40;99648.16;1627992;87;21140;-76
2021/08/16 07:58:10;;;;;;;10.10;8.53;;;;;;;27.89;49.75;99651.49;1613698;87;21023;-77
2021/08/16 08:00:39;;;;;;;21.70;7.80;;;;;;;27.97;49.11;99646.89;1613818;87;21593;-77
2021/08/16 08:03:08;;;;;;;10.28;8.28;;;;;;;28.02;48.62;99658.45;1662165;86;21533;-76
2021/08/16 08:05:36;;;;;;;11.08;8.50;;;;;;;28.09;48.31;99648.91;1616589;87;20963;-76
2021/08/16 08:08:03;;;;;;;11.33;7.72;;;;;;;28.14;48.36;99651.41;1660381;86;20951;-76
2021/08/16 08:10:33;;;;;;;15.05;7.28;;;;;;;28.21;47.81;99655.45;1627879;86;21091;-77
2021/08/16 08:13:00;;;;;;;14.23;6.75;;;;;;;28.26;46.49;99653.17;1639885;87;21050;-77
2021/08/16 08:15:30;;;;;;;11.78;7.45;;;;;;;28.32;46.19;99658.63;1657559;86;21546;-77
2021/08/16 08:17:59;;;;;;;19.35;10.20;;;;;;;28.35;45.77;99657.87;1614841;87;20908;-76
2021/08/16 08:20:26;;;;;;;10.10;7.75;;;;;;;28.38;45.99;99652.20;1613880;87;21073;-77
2021/08/16 08:22:53;;;;;;;10.95;8.20;;;;;;;28.41;46.06;99652.25;1640346;87;22257;-75
2021/08/16 08:25:19;;;;;;;13.30;8.88;;;;;;;28.49;45.22;99644.27;1640439;87;21062;-75
2021/08/16 08:27:46;;;;;;;16.87;9.05;;;;;;;28.57;45.06;99648.78;1661662;86;21122;-76
2021/08/16 08:30:14;;;;;;;13.53;8.55;;;;;;;28.66;44.77;99651.28;1639469;87;21019;-76
2021/08/16 08:32:53;;;;;;;10.15;7.53;;;;;;;28.68;44.18;99644.77;1663833;86;20984;-75
2021/08/16 08:35:20;;;;;;;12.10;7.72;;;;;;;28.72;44.25;99649.03;1635053;87;21044;-76
2021/08/16 08:37:48;;;;;;;15.70;7.55;;;;;;;28.79;43.59;99651.30;1642795;86;20981;-76
2021/08/16 08:40:15;;;;;;;12.30;6.30;;;;;;;28.82;43.54;99643.66;1642831;87;21438;-77
2021/08/16 08:42:41;;;;;;;10.68;6.05;;;;;;;28.89;43.22;99646.52;1640125;84;20955;-75
2021/08/16 08:45:09;;;;;;;14.70;7.42;;;;;;;28.93;41.80;99647.95;1640076;87;21536;-75
2021/08/16 08:47:35;;;;;;;8.33;5.70;;;;;;;28.94;42.07;99654.50;1660924;86;21073;-76
2021/08/16 08:50:02;;;;;;;7.70;6.90;;;;;;;28.96;42.17;99647.22;1681409;84;21081;-76
2021/08/16 08:52:30;;;;;;;14.10;7.78;;;;;;;29.01;42.26;99652.44;1687525;84;21168;-74
2021/08/16 08:54:57;;;;;;;14.93;7.35;;;;;;;29.07;42.66;99648.14;1664752;86;21043;-76
2021/08/16 08:57:23;;;;;;;14.23;7.47;;;;;;;29.13;42.84;99648.63;1664646;85;20992;-76
2021/08/16 08:59:50;;;;;;;9.73;6.33;;;;;;;29.20;43.01;99643.19;1651073;86;21043;-76
2021/08/16 09:02:17;;;;;;;11.03;6.78;;;;;;;29.32;42.61;99645.75;1643982;85;21015;-76
2021/08/16 09:04:54;;;;;;;10.95;7.75;;;;;;;29.43;42.43;99643.91;1659534;85;22172;-74
2021/08/16 09:07:38;;;;;;;10.95;6.33;;;;;;;29.54;41.35;99644.05;1636686;87;21055;-75
2021/08/16 09:10:14;;;;;;;9.03;6.85;;;;;;;29.61;40.47;99643.53;1639947;87;21062;-77
2021/08/16 09:12:41;;;;;;;9.35;6.92;;;;;;;29.64;40.07;99644.16;1663763;86;21091;-75
2021/08/16 09:15:23;;;;;;;7.97;7.08;;;;;;;29.69;39.87;99645.20;1646877;86;21567;-75
2021/08/16 09:17:50;;;;;;;12.45;7.20;;;;;;;29.71;40.03;99637.31;1664080;86;21750;-76
2021/08/16 09:20:27;;;;;;;8.83;7.10;;;;;;;29.75;40.38;99635.96;1647367;85;21085;-75
2021/08/16 09:23:05;;;;;;;8.43;6.53;;;;;;;29.77;40.22;99633.63;1656916;86;21026;-77
2021/08/16 09:25:37;;;;;;;12.28;7.60;;;;;;;29.84;40.20;99628.14;1619692;87;21081;-77
2021/08/16 09:28:05;;;;;;;14.50;7.05;;;;;;;29.92;39.65;99627.08;1642555;86;21047;-76
2021/08/16 09:30:39;;;;;;;7.35;6.60;;;;;;;30.01;39.37;99623.99;1645834;87;21348;-76
2021/08/16 09:33:15;;;;;;;13.68;7.03;;;;;;;30.08;39.25;99624.84;1646170;85;21094;-76
2021/08/16 09:35:55;;;;;;;8.60;6.87;;;;;;;30.07;39.31;99623.86;1641489;87;21019;-73
2021/08/16 09:38:38;;;;;;;12.28;7.42;;;;;;;30.07;39.32;99622.47;1645854;87;20991;-85
2021/08/16 09:41:07;;;;;;;12.88;8.20;;;;;;;30.09;39.59;99622.28;1645206;87;21087;-78
2021/08/16 09:43:33;;;;;;;8.05;7.25;;;;;;;30.19;38.43;99627.72;1665869;86;21146;-82
2021/08/16 09:46:01;;;;;;;30.27;8.20;;;;;;;30.14;38.57;99617.77;1604168;87;21006;-82
2021/08/16 09:48:28;;;;;;;11.08;6.78;;;;;;;30.14;38.67;99612.22;1620353;86;21025;-81
2021/08/16 09:50:55;;;;;;;10.08;6.72;;;;;;;30.18;38.78;99608.09;1621041;87;21003;-79
2021/08/16 09:53:24;;;;;;;15.28;8.53;;;;;;;30.25;37.87;99615.09;1622487;87;21046;-80
2021/08/16 09:55:54;;;;;;;13.43;7.65;;;;;;;30.28;37.63;99612.34;1646278;85;21572;-77
2021/08/16 09:58:20;;;;;;;9.20;7.55;;;;;;;30.32;37.88;99616.53;1631832;87;21548;-76
2021/08/16 10:00:50;;;;;;;7.70;6.95;;;;;;;30.34;37.89;99610.02;1656406;86;20991;-79
2021/08/16 10:03:16;;;;;;;8.85;7.40;;;;;;;30.43;38.30;99598.58;1640402;87;20968;-79
2021/08/16 10:05:47;;;;;;;11.88;7.78;;;;;;;30.56;37.72;99598.50;1641627;86;21041;-78
2021/08/16 10:08:17;;;;;;;11.22;7.08;;;;;;;30.67;36.95;99591.05;1634170;86;21309;-80
2021/08/16 10:10:44;;;;;;;12.53;6.62;;;;;;;30.70;37.18;99594.43;1627095;86;21031;-75
2021/08/16 10:13:11;;;;;;;9.93;6.70;;;;;;;30.76;37.12;99594.28;1620798;87;21023;-77
2021/08/16 10:15:44;;;;;;;9.70;7.08;;;;;;;30.81;36.43;99588.95;1637871;87;20971;-79
2021/08/16 10:18:14;;;;;;;12.03;6.20;;;;;;;30.77;36.86;99588.14;1663258;86;21537;-84
2021/08/16 10:20:43;;;;;;;11.15;7.15;;;;;;;30.84;36.96;99581.25;1669922;85;21121;-86
2021/08/16 10:23:20;;;;;;;8.63;7.75;;;;;;;30.93;36.49;99592.21;1656569;86;21019;-77
2021/08/16 10:25:47;;;;;;;9.95;6.97;;;;;;;31.01;36.37;99586.09;1656633;86;20961;-77
2021/08/16 10:28:30;;;;;;;13.58;8.50;;;;;;;31.04;36.21;99575.61;1670049;85;20991;-75
2021/08/16 10:30:58;;;;;;;14.53;6.95;;;;;;;31.10;36.44;99573.46;1652355;85;21044;-80
2021/08/16 10:33:25;;;;;;;15.55;7.80;;;;;;;31.18;36.20;99581.22;1669980;85;21931;-76
2021/08/16 10:35:52;;;;;;;8.28;6.20;;;;;;;31.18;36.21;99573.69;1670387;86;21537;-78
2021/08/16 10:38:19;;;;;;;11.43;7.45;;;;;;;31.22;36.15;99573.72;1668088;86;21013;-79
2021/08/16 10:40:52;;;;;;;12.18;7.08;;;;;;;31.28;35.99;99578.28;1650911;86;21084;-78
2021/08/16 10:43:20;;;;;;;9.75;6.72;;;;;;;31.33;35.80;99574.54;1629635;87;21076;-78
2021/08/16 10:45:53;;;;;;;11.18;7.55;;;;;;;31.42;35.38;99582.50;1642796;86;21084;-75
2021/08/16 10:48:23;;;;;;;14.30;7.53;;;;;;;31.47;35.29;99566.83;1642835;87;20968;-72
2021/08/16 10:51:06;;;;;;;12.70;7.92;;;;;;;31.46;35.43;99562.48;1637911;86;22307;-79
2021/08/16 10:53:48;;;;;;;8.28;7.20;;;;;;;31.56;35.34;99556.16;1629601;87;21603;-78
2021/08/16 10:56:22;;;;;;;23.47;7.45;;;;;;;31.69;35.11;99558.78;1648787;86;21548;-77
2021/08/16 10:58:49;;;;;;;15.28;8.18;;;;;;;31.82;35.14;99561.98;1609845;87;21349;-77
2021/08/16 11:01:33;;;;;;;13.48;8.68;;;;;;;31.87;34.74;99559.60;1641122;86;21078;-79
2021/08/16 11:04:05;;;;;;;13.68;8.80;;;;;;;31.95;35.00;99557.02;1663022;86;21037;-78
2021/08/16 11:06:31;;;;;;;12.95;8.15;;;;;;;32.01;35.10;99554.05;1641253;87;21543;-80
2021/08/16 11:09:02;;;;;;;9.93;8.08;;;;;;;32.01;34.91;99553.24;1663063;86;21011;-75
2021/08/16 11:11:32;;;;;;;14.58;8.10;;;;;;;31.96;35.09;99548.88;1662510;86;21181;-73
2021/08/16 11:14:08;;;;;;;16.17;9.38;;;;;;;31.92;35.07;99547.28;1662925;86;21469;-76
2021/08/16 11:16:48;;;;;;;9.78;6.30;;;;;;;31.85;35.10;99543.09;1683397;84;22229;-79
2021/08/16 11:19:15;;;;;;;9.38;7.47;;;;;;;31.81;35.58;99545.08;1663026;85;21231;-78
2021/08/16 11:22:00;;;;;;;15.38;6.90;;;;;;;31.79;35.77;99546.09;1659246;86;21003;-78
2021/08/16 11:24:38;;;;;;;12.98;8.83;;;;;;;31.81;35.43;99538.13;1616865;87;21071;-74
2021/08/16 11:27:07;;;;;;;9.68;7.15;;;;;;;31.75;35.52;99547.45;1662972;86;20978;-81